Time;durP1;ratioP1;P1;durP2;ratioP2;P2;SDS_P1;SDS_P2;PMS_P1;PMS_P2;Temp;Humidity;BMP_temperature;BMP_pressure;BME280_temperature;BME280_humidity;BME280_pressure;Samples;Min_cycle;Max_cycle;Signal;HPM_P1;HPM_P2
2024/02/18 00:02:07;;;;;;;6.15;2.60;;;14.40;61.70;;;;;;6309605;28;20521;-81
2024/02/18 00:05:08;;;;;;;5.95;3.70;;;14.40;61.60;;;;;;6296100;28;20134;-82
2024/02/18 00:08:11;;;;;;;15.30;3.17;;;14.50;61.50;;;;;;6306774;28;20060;-81
2024/02/18 00:11:15;;;;;;;7.75;3.30;;;14.50;61.50;;;;;;6313843;28;20591;-81
2024/02/18 00:14:18;;;;;;;12.73;3.33;;;14.50;61.40;;;;;;6289167;28;20017;-82
2024/02/18 00:17:19;;;;;;;9.30;3.65;;;14.70;61.40;;;;;;6304766;28;20107;-81
2024/02/18 00:20:21;;;;;;;5.78;3.47;;;14.70;61.20;;;;;;6270574;28;20777;-81
2024/02/18 00:23:23;;;;;;;8.80;3.60;;;14.70;61.10;;;;;;6306763;28;20016;-82
2024/02/18 00:26:25;;;;;;;12.40;4.55;;;14.50;60.90;;;;;;6286700;28;20501;-82
2024/02/18 00:29:31;;;;;;;7.18;3.42;;;14.60;61.00;;;;;;6295523;28;20148;-81
2024/02/18 00:32:32;;;;;;;10.50;3.72;;;14.50;61.10;;;;;;6313437;28;21079;-80
2024/02/18 00:35:34;;;;;;;10.57;3.55;;;14.50;61.30;;;;;;6313762;28;20039;-81
2024/02/18 00:38:35;;;;;;;14.43;5.47;;;14.50;61.30;;;;;;6296774;28;20201;-81
2024/02/18 00:41:36;;;;;;;14.85;3.95;;;14.50;61.40;;;;;;6288840;28;20028;-81
2024/02/18 00:44:39;;;;;;;11.10;3.88;;;14.40;61.40;;;;;;6303169;28;20047;-81
2024/02/18 00:47:41;;;;;;;8.45;3.78;;;14.50;61.40;;;;;;6309151;28;20044;-81
2024/02/18 00:50:43;;;;;;;12.93;4.60;;;14.50;61.40;;;;;;6283090;28;20028;-81
2024/02/18 00:53:46;;;;;;;9.02;4.20;;;14.50;61.40;;;;;;6287786;28;20108;-81
2024/02/18 00:56:50;;;;;;;9.60;3.80;;;14.60;61.40;;;;;;6308866;28;20444;-82
2024/02/18 00:59:51;;;;;;;10.50;3.75;;;14.60;61.30;;;;;;6294069;28;20074;-82
2024/02/18 01:02:51;;;;;;;9.80;3.38;;;14.60;61.30;;;;;;6310117;28;20415;-82
2024/02/18 01:05:54;;;;;;;12.75;3.70;;;14.60;61.30;;;;;;6301643;28;20476;-81
2024/02/18 01:08:57;;;;;;;16.17;3.58;;;14.60;61.40;;;;;;6309467;28;20178;-81
2024/02/18 01:11:58;;;;;;;7.47;2.95;;;14.50;61.40;;;;;;6289244;28;20111;-81
2024/02/18 01:15:00;;;;;;;8.20;3.50;;;14.50;61.50;;;;;;6308966;28;20078;-82
2024/02/18 01:18:01;;;;;;;11.15;3.80;;;14.50;61.50;;;;;;6304833;28;20039;-82
2024/02/18 01:21:02;;;;;;;9.63;3.80;;;14.50;61.50;;;;;;6293295;28;20040;-81
2024/02/18 01:24:04;;;;;;;5.05;2.97;;;14.50;61.60;;;;;;6308674;28;20031;-81
2024/02/18 01:27:05;;;;;;;8.65;3.17;;;14.50;61.70;;;;;;6304551;28;20064;-82
2024/02/18 01:30:06;;;;;;;7.70;3.72;;;14.50;61.80;;;;;;6315757;28;20453;-82
2024/02/18 01:33:09;;;;;;;12.02;3.17;;;14.40;61.80;;;;;;6289403;28;20040;-82
2024/02/18 01:36:10;;;;;;;9.60;3.58;;;14.50;61.90;;;;;;6292402;28;20024;-82
2024/02/18 01:39:13;;;;;;;8.70;3.70;;;14.50;61.90;;;;;;6288219;28;20532;-81
2024/02/18 01:42:14;;;;;;;7.72;4.00;;;14.40;61.80;;;;;;6271698;28;20036;-82
2024/02/18 01:45:17;;;;;;;7.10;3.35;;;14.40;61.90;;;;;;6309339;28;20044;-81
2024/02/18 01:48:23;;;;;;;11.27;4.10;;;14.40;62.00;;;;;;6296257;28;20076;-82
2024/02/18 01:51:26;;;;;;;6.13;3.20;;;14.40;62.10;;;;;;6306666;28;20032;-81
2024/02/18 01:54:33;;;;;;;10.90;3.83;;;14.40;62.10;;;;;;6299915;28;20102;-82
2024/02/18 01:57:34;;;;;;;13.63;3.75;;;14.30;62.10;;;;;;6281684;28;20116;-81
2024/02/18 02:00:39;;;;;;;14.82;4.30;;;14.40;62.20;;;;;;6300555;28;20065;-81
2024/02/18 02:03:40;;;;;;;9.55;3.97;;;14.40;62.30;;;;;;6309550;28;20070;-82
2024/02/18 02:06:44;;;;;;;13.13;4.32;;;14.40;62.30;;;;;;6292181;28;20028;-81
2024/02/18 02:09:46;;;;;;;22.13;4.07;;;14.40;63.10;;;;;;6309068;28;20059;-81
2024/02/18 02:12:48;;;;;;;7.25;3.80;;;14.40;62.20;;;;;;6310781;28;20095;-81
2024/02/18 02:15:52;;;;;;;7.28;3.72;;;14.40;62.30;;;;;;6295944;28;20024;-81
2024/02/18 02:18:53;;;;;;;12.25;4.07;;;14.40;62.30;;;;;;6284590;28;20020;-81
2024/02/18 02:21:56;;;;;;;10.65;3.92;;;14.30;62.40;;;;;;6286080;28;20384;-81
2024/02/18 02:25:00;;;;;;;6.47;3.78;;;14.30;62.50;;;;;;6298853;28;20085;-82
2024/02/18 02:28:13;;;;;;;13.10;3.78;;;14.30;63.40;;;;;;6296465;28;20032;-82
2024/02/18 02:31:16;;;;;;;9.57;3.55;;;14.30;62.60;;;;;;6287949;28;20071;-80
2024/02/18 02:34:17;;;;;;;8.93;3.83;;;14.30;62.60;;;;;;6301568;28;20457;-80
2024/02/18 02:37:19;;;;;;;14.13;5.03;;;14.30;62.60;;;;;;6308707;28;20035;-81
2024/02/18 02:40:20;;;;;;;7.07;4.90;;;14.30;62.60;;;;;;6301488;28;20114;-80
2024/02/18 02:43:21;;;;;;;9.57;3.63;;;14.30;62.60;;;;;;6287293;28;20050;-81
2024/02/18 02:46:29;;;;;;;7.18;3.50;;;14.40;62.60;;;;;;6299129;28;20021;-82
2024/02/18 02:49:35;;;;;;;6.38;3.60;;;14.40;62.60;;;;;;6299971;28;20050;-81
2024/02/18 02:52:40;;;;;;;7.32;3.58;;;14.40;62.60;;;;;;6302898;28;20050;-82
2024/02/18 02:55:43;;;;;;;13.65;3.95;;;14.40;63.40;;;;;;6308759;28;20089;-82
2024/02/18 02:58:44;;;;;;;9.25;3.85;;;14.40;62.50;;;;;;6272289;28;20483;-80
2024/02/18 03:01:45;;;;;;;6.35;3.38;;;14.40;62.40;;;;;;6289925;28;20097;-80
2024/02/18 03:04:47;;;;;;;9.93;3.35;;;14.50;62.40;;;;;;6305254;28;20040;-81
2024/02/18 03:07:50;;;;;;;7.88;4.60;;;14.50;62.40;;;;;;6325614;28;20039;-81
2024/02/18 03:10:52;;;;;;;8.30;3.90;;;14.50;62.20;;;;;;6317048;28;20027;-81
2024/02/18 03:13:55;;;;;;;8.88;3.88;;;14.50;62.20;;;;;;6312324;28;20503;-82
2024/02/18 03:16:56;;;;;;;8.20;3.72;;;14.40;62.30;;;;;;6300889;28;20047;-81
2024/02/18 03:19:58;;;;;;;9.35;4.20;;;14.40;62.40;;;;;;6310333;28;20035;-81
2024/02/18 03:22:59;;;;;;;10.10;3.90;;;14.40;62.50;;;;;;6287573;28;20020;-81
2024/02/18 03:26:00;;;;;;;8.68;4.20;;;14.30;62.50;;;;;;6304884;28;20039;-82
2024/02/18 03:29:03;;;;;;;6.20;3.78;;;14.40;62.70;;;;;;6296668;28;20086;-80
2024/02/18 03:32:07;;;;;;;12.45;4.15;;;14.30;62.80;;;;;;6312728;28;20016;-82
2024/02/18 03:35:08;;;;;;;10.98;3.90;;;14.30;62.80;;;;;;6310771;28;20082;-82
2024/02/18 03:38:11;;;;;;;9.27;4.28;;;14.30;62.80;;;;;;6294531;28;20611;-82
2024/02/18 03:41:12;;;;;;;9.75;4.07;;;14.30;62.80;;;;;;6329406;28;20028;-81
2024/02/18 03:44:13;;;;;;;9.10;4.03;;;14.30;62.80;;;;;;6312284;28;20078;-82
2024/02/18 03:47:15;;;;;;;8.07;4.57;;;14.30;62.90;;;;;;6289364;28;20185;-82
2024/02/18 03:50:19;;;;;;;10.68;4.47;;;14.40;62.80;;;;;;6302110;28;20040;-81
2024/02/18 03:53:20;;;;;;;9.18;4.32;;;14.40;62.70;;;;;;6312769;28;20036;-82
2024/02/18 03:56:22;;;;;;;11.23;4.15;;;14.40;62.60;;;;;;6312659;28;20057;-80
2024/02/18 03:59:22;;;;;;;14.10;4.28;;;14.40;62.50;;;;;;6290459;28;20360;-82
2024/02/18 04:02:24;;;;;;;8.48;4.18;;;14.50;62.40;;;;;;6310391;28;20027;-82
2024/02/18 04:05:25;;;;;;;12.98;4.13;;;14.50;62.30;;;;;;6311695;28;20020;-82
2024/02/18 04:08:28;;;;;;;8.77;3.85;;;14.50;62.20;;;;;;6291453;28;20052;-81
2024/02/18 04:11:31;;;;;;;9.63;4.20;;;14.60;62.30;;;;;;6327472;28;20117;-82
2024/02/18 04:14:33;;;;;;;8.98;4.50;;;14.60;62.20;;;;;;6272777;28;20077;-81
2024/02/18 04:17:34;;;;;;;9.38;4.13;;;14.60;62.20;;;;;;6314002;28;20039;-81
2024/02/18 04:20:36;;;;;;;12.20;4.47;;;14.60;62.20;;;;;;6291744;28;20028;-81
2024/02/18 04:23:39;;;;;;;9.07;4.32;;;14.70;62.10;;;;;;6288631;28;20032;-82
2024/02/18 04:26:41;;;;;;;9.65;4.82;;;14.70;62.00;;;;;;6302455;28;20111;-81
2024/02/18 04:29:42;;;;;;;16.73;5.30;;;14.70;62.00;;;;;;6283468;28;20040;-82
2024/02/18 04:32:45;;;;;;;12.52;4.65;;;14.70;62.10;;;;;;6311780;28;20035;-81
2024/02/18 04:35:46;;;;;;;10.68;4.38;;;14.70;62.00;;;;;;6294747;28;20016;-82
2024/02/18 04:38:48;;;;;;;8.73;4.38;;;14.80;62.20;;;;;;6313048;28;20035;-81
2024/02/18 04:41:49;;;;;;;13.30;4.72;;;14.60;62.10;;;;;;6296829;28;20480;-82
2024/02/18 04:44:50;;;;;;;12.18;5.32;;;14.60;62.10;;;;;;6296079;28;20031;-81
2024/02/18 04:47:53;;;;;;;9.70;4.05;;;14.60;62.10;;;;;;6273907;28;20041;-81
2024/02/18 04:50:53;;;;;;;10.43;4.30;;;14.70;62.00;;;;;;6309744;28;20306;-82
2024/02/18 04:53:54;;;;;;;12.20;4.63;;;14.70;61.90;;;;;;6299026;28;20111;-82
2024/02/18 04:56:57;;;;;;;8.82;4.25;;;14.70;61.80;;;;;;6295993;28;20395;-83
2024/02/18 04:59:58;;;;;;;12.30;5.28;;;14.70;61.80;;;;;;6310860;28;20423;-82
2024/02/18 05:03:00;;;;;;;8.30;4.10;;;14.80;61.80;;;;;;6292477;28;20198;-81
2024/02/18 05:06:02;;;;;;;10.75;4.35;;;14.80;61.70;;;;;;6290969;28;20115;-82
2024/02/18 05:09:05;;;;;;;7.63;3.97;;;14.80;61.60;;;;;;6309469;28;20073;-82
2024/02/18 05:12:07;;;;;;;14.63;4.53;;;14.80;61.60;;;;;;6320875;28;20084;-81
2024/02/18 05:15:08;;;;;;;9.98;4.68;;;14.90;61.60;;;;;;6337746;28;20121;-81
2024/02/18 05:18:09;;;;;;;10.82;5.20;;;14.80;61.60;;;;;;6312233;28;20139;-83
2024/02/18 05:21:10;;;;;;;12.32;4.93;;;14.80;61.60;;;;;;6305587;28;20020;-81
2024/02/18 05:24:13;;;;;;;13.25;4.25;;;14.80;61.60;;;;;;6285783;28;20029;-83
2024/02/18 05:27:14;;;;;;;12.48;5.22;;;14.70;62.40;;;;;;6308718;28;20028;-82
2024/02/18 05:30:37;;;;;;;9.35;4.13;;;14.80;61.60;;;;;;6293722;28;20092;-82
2024/02/18 05:33:38;;;;;;;9.65;4.72;;;14.80;61.60;;;;;;6216678;28;20034;-81
2024/02/18 05:36:41;;;;;;;8.77;4.15;;;14.80;61.60;;;;;;6226570;28;20505;-82
2024/02/18 05:39:42;;;;;;;7.95;4.30;;;14.80;61.60;;;;;;6215945;28;20654;-83
2024/02/18 05:42:45;;;;;;;13.25;5.35;;;14.80;61.50;;;;;;6200724;28;20833;-81
2024/02/18 05:45:46;;;;;;;10.48;4.55;;;14.90;61.50;;;;;;6218029;28;20116;-82
2024/02/18 05:48:47;;;;;;;9.52;4.82;;;14.90;61.40;;;;;;6184057;28;20073;-82
2024/02/18 05:51:53;;;;;;;14.13;4.75;;;14.90;61.40;;;;;;6169541;28;20047;-81
2024/02/18 05:54:54;;;;;;;10.30;5.03;;;14.90;61.30;;;;;;6168650;28;20030;-81
2024/02/18 05:57:55;;;;;;;14.00;4.93;;;14.90;61.30;;;;;;6184325;28;20038;-81
2024/02/18 06:00:58;;;;;;;14.52;5.38;;;14.90;61.20;;;;;;6168531;28;20049;-82
2024/02/18 06:03:58;;;;;;;11.90;5.25;;;14.90;61.20;;;;;;6164368;28;20038;-82
2024/02/18 06:07:00;;;;;;;12.00;5.35;;;14.80;61.10;;;;;;6169060;28;20206;-83
2024/02/18 06:10:02;;;;;;;18.73;5.35;;;14.80;61.30;;;;;;6160505;28;20471;-83
2024/02/18 06:13:03;;;;;;;9.48;4.63;;;14.80;61.40;;;;;;6168072;28;20057;-81
2024/02/18 06:16:07;;;;;;;11.38;4.63;;;14.80;61.40;;;;;;6168233;28;20030;-82
2024/02/18 06:19:08;;;;;;;9.02;4.15;;;14.80;61.50;;;;;;6184813;28;20156;-81
2024/02/18 06:22:09;;;;;;;13.57;6.18;;;14.80;61.60;;;;;;6221294;28;20052;-81
2024/02/18 06:25:11;;;;;;;10.68;5.28;;;14.70;62.10;;;;;;6275618;28;20043;-82
2024/02/18 06:28:12;;;;;;;10.48;4.95;;;14.70;61.60;;;;;;6312365;28;20157;-82
2024/02/18 06:31:14;;;;;;;15.23;5.32;;;14.70;61.60;;;;;;6314875;28;20078;-82
2024/02/18 06:34:16;;;;;;;13.48;4.95;;;14.70;61.60;;;;;;6290831;28;20028;-83
2024/02/18 06:37:17;;;;;;;9.75;4.53;;;14.70;62.30;;;;;;6292230;28;20020;-81
2024/02/18 06:40:19;;;;;;;9.02;4.85;;;14.70;61.80;;;;;;6305574;28;20146;-82
2024/02/18 06:43:20;;;;;;;10.75;5.43;;;14.70;62.00;;;;;;6307419;28;20016;-82
2024/02/18 06:46:22;;;;;;;11.70;4.75;;;14.60;62.10;;;;;;6308951;28;20441;-83
2024/02/18 06:49:25;;;;;;;13.75;4.93;;;14.60;62.30;;;;;;6305182;28;20036;-82
2024/02/18 06:52:28;;;;;;;10.02;5.07;;;14.50;62.40;;;;;;6294994;28;20108;-83
2024/02/18 06:55:29;;;;;;;13.20;5.80;;;14.60;62.50;;;;;;6308339;28;21233;-81
2024/02/18 06:58:31;;;;;;;11.70;5.30;;;14.50;62.50;;;;;;6287258;28;20024;-82
2024/02/18 07:01:33;;;;;;;10.85;5.30;;;14.50;62.60;;;;;;6282762;28;20036;-82
2024/02/18 07:04:35;;;;;;;20.10;5.22;;;14.50;62.70;;;;;;6290508;28;20042;-81
2024/02/18 07:07:38;;;;;;;9.60;4.72;;;14.50;62.60;;;;;;6307487;28;20044;-82
2024/02/18 07:10:39;;;;;;;13.40;5.15;;;14.50;62.60;;;;;;6272133;28;20467;-82
2024/02/18 07:13:40;;;;;;;14.90;5.13;;;14.60;62.60;;;;;;6300824;28;20027;-81
2024/02/18 07:16:44;;;;;;;9.63;5.38;;;14.60;62.60;;;;;;6288681;28;20056;-81
2024/02/18 07:19:49;;;;;;;12.02;5.13;;;14.60;62.60;;;;;;6306427;28;20042;-80
2024/02/18 07:22:50;;;;;;;10.35;4.68;;;14.70;62.50;;;;;;6300724;28;20130;-80
2024/02/18 07:25:53;;;;;;;12.50;5.53;;;14.70;62.50;;;;;;6308595;28;20048;-81
2024/02/18 07:28:57;;;;;;;12.52;5.95;;;14.70;62.30;;;;;;6294828;28;20036;-81
2024/02/18 07:31:58;;;;;;;14.00;5.80;;;14.80;62.20;;;;;;6315412;28;20117;-82
2024/02/18 07:35:02;;;;;;;15.00;6.25;;;14.80;62.20;;;;;;6276125;28;20430;-81
2024/02/18 07:38:04;;;;;;;12.18;5.72;;;14.80;62.20;;;;;;6284452;28;20032;-80
2024/02/18 07:41:04;;;;;;;14.20;6.47;;;14.80;62.10;;;;;;6291686;28;20085;-80
2024/02/18 07:44:07;;;;;;;13.05;5.55;;;14.80;62.20;;;;;;6300085;28;20893;-80
2024/02/18 07:47:08;;;;;;;12.82;5.90;;;14.80;62.20;;;;;;6314285;28;20039;-81
2024/02/18 07:50:11;;;;;;;15.50;6.10;;;14.80;62.10;;;;;;6315576;28;20024;-81
2024/02/18 07:53:12;;;;;;;14.93;6.85;;;14.90;62.10;;;;;;6295365;28;20072;-83
2024/02/18 07:56:14;;;;;;;12.40;5.72;;;14.90;61.90;;;;;;6295460;28;20019;-81
2024/02/18 07:59:21;;;;;;;17.13;6.30;;;15.00;61.90;;;;;;6297509;28;20100;-81
2024/02/18 08:02:23;;;;;;;14.27;6.55;;;15.00;61.70;;;;;;6321126;28;20032;-81
2024/02/18 08:05:25;;;;;;;14.05;6.32;;;15.00;61.60;;;;;;6306247;28;20023;-81
2024/02/18 08:08:29;;;;;;;14.40;6.95;;;15.10;61.60;;;;;;6312731;28;20082;-81
2024/02/18 08:11:31;;;;;;;12.23;6.47;;;15.10;61.50;;;;;;6302997;28;20016;-82
2024/02/18 08:14:33;;;;;;;22.60;8.68;;;15.20;61.50;;;;;;6317498;28;20448;-82
2024/02/18 08:17:35;;;;;;;21.02;7.35;;;15.20;61.20;;;;;;6315752;28;20020;-82
2024/02/18 08:20:37;;;;;;;18.40;7.10;;;15.30;61.10;;;;;;6287281;28;20025;-82
2024/02/18 08:23:39;;;;;;;17.25;7.53;;;15.40;60.90;;;;;;6301712;28;20428;-82
2024/02/18 08:26:40;;;;;;;13.93;6.53;;;15.50;60.50;;;;;;6312929;28;20070;-81
2024/02/18 08:29:44;;;;;;;17.27;7.30;;;15.50;60.30;;;;;;6291848;28;20213;-81
2024/02/18 08:32:45;;;;;;;16.77;7.00;;;15.60;60.30;;;;;;6312142;28;20106;-81
2024/02/18 08:35:50;;;;;;;15.52;6.97;;;15.60;60.00;;;;;;6317886;28;20028;-83
2024/02/18 08:38:50;;;;;;;18.60;7.07;;;15.70;60.00;;;;;;6312362;28;20089;-81
2024/02/18 08:41:51;;;;;;;14.77;7.55;;;15.70;59.90;;;;;;6312012;28;20032;-81
2024/02/18 08:44:55;;;;;;;17.23;7.53;;;15.70;59.80;;;;;;6313987;28;20081;-80
2024/02/18 08:47:56;;;;;;;16.98;7.95;;;15.80;59.80;;;;;;6291586;28;20041;-80
2024/02/18 08:50:59;;;;;;;19.10;7.95;;;15.90;59.60;;;;;;6296059;28;20057;-82
2024/02/18 08:54:00;;;;;;;24.13;8.55;;;15.90;59.40;;;;;;6296268;28;20482;-81
2024/02/18 08:57:03;;;;;;;16.63;8.32;;;16.00;59.30;;;;;;6298933;28;20024;-81
2024/02/18 09:00:07;;;;;;;19.65;6.95;;;16.10;59.00;;;;;;6314704;28;20107;-79
2024/02/18 09:03:10;;;;;;;18.05;7.60;;;16.10;58.80;;;;;;6288644;28;20032;-81
2024/02/18 09:06:11;;;;;;;19.10;8.90;;;16.10;58.70;;;;;;6292096;28;20028;-81
2024/02/18 09:09:13;;;;;;;20.20;8.50;;;16.20;58.60;;;;;;6308702;28;20116;-80
2024/02/18 09:12:15;;;;;;;21.13;8.18;;;16.20;58.40;;;;;;6311887;28;20016;-81
2024/02/18 09:15:17;;;;;;;22.50;10.38;;;16.30;58.40;;;;;;6312172;28;20024;-81
2024/02/18 09:18:19;;;;;;;21.45;9.48;;;16.40;58.20;;;;;;6293693;28;20076;-82
2024/02/18 09:21:21;;;;;;;24.67;9.75;;;16.50;57.80;;;;;;6293052;28;20032;-82
2024/02/18 09:24:22;;;;;;;22.70;9.32;;;16.60;57.80;;;;;;6277815;28;20318;-79
2024/02/18 09:27:23;;;;;;;27.40;11.60;;;16.60;57.70;;;;;;6289073;28;20132;-82
2024/02/18 09:30:24;;;;;;;23.23;10.98;;;16.70;57.60;;;;;;6294265;28;20027;-82
2024/02/18 09:33:25;;;;;;;19.98;10.35;;;16.80;57.50;;;;;;6310468;28;20073;-82
2024/02/18 09:36:26;;;;;;;24.67;8.85;;;16.80;57.30;;;;;;6312309;28;20028;-81
2024/02/18 09:39:28;;;;;;;27.02;10.07;;;16.80;57.30;;;;;;6307800;28;20021;-82
2024/02/18 09:42:34;;;;;;;19.75;8.80;;;16.90;57.30;;;;;;6293177;28;20074;-81
2024/02/18 09:45:36;;;;;;;26.08;10.13;;;16.90;57.90;;;;;;6290046;28;20136;-82
2024/02/18 09:48:38;;;;;;;21.65;9.48;;;16.90;57.20;;;;;;6312653;28;20066;-81
2024/02/18 09:51:39;;;;;;;23.83;9.38;;;17.00;57.10;;;;;;6312065;28;20198;-81
2024/02/18 09:54:42;;;;;;;29.85;10.30;;;17.00;57.10;;;;;;6298199;28;20028;-82
2024/02/18 09:57:43;;;;;;;23.98;9.85;;;17.10;56.80;;;;;;6306833;28;20158;-84
2024/02/18 10:00:44;;;;;;;24.55;8.38;;;17.20;56.50;;;;;;6298383;28;20036;-81
2024/02/18 10:03:45;;;;;;;20.55;9.18;;;17.30;56.10;;;;;;6311975;28;20085;-82
2024/02/18 10:06:46;;;;;;;16.38;7.80;;;17.40;56.10;;;;;;6299415;28;20097;-82
2024/02/18 10:09:47;;;;;;;15.63;6.97;;;17.40;55.70;;;;;;6312025;28;20048;-82
2024/02/18 10:12:48;;;;;;;18.17;7.30;;;17.40;55.80;;;;;;6316743;28;20534;-82
2024/02/18 10:15:51;;;;;;;16.27;6.70;;;17.40;55.70;;;;;;6309595;28;20035;-82
2024/02/18 10:19:00;;;;;;;15.43;6.75;;;17.50;55.50;;;;;;6316945;28;20119;-82
2024/02/18 10:22:02;;;;;;;19.52;8.23;;;17.50;55.60;;;;;;6291464;28;20471;-82
2024/02/18 10:25:07;;;;;;;14.45;6.90;;;17.60;55.50;;;;;;6289570;28;20029;-80
2024/02/18 10:28:08;;;;;;;19.17;6.80;;;17.60;55.40;;;;;;6294812;28;20066;-82
2024/02/18 10:31:12;;;;;;;11.52;5.97;;;17.70;55.30;;;;;;6280526;28;20040;-82
2024/02/18 10:34:17;;;;;;;11.85;5.93;;;17.80;55.10;;;;;;6297318;28;20023;-81
2024/02/18 10:37:21;;;;;;;14.68;5.65;;;17.90;54.80;;;;;;6310684;28;20031;-81
2024/02/18 10:40:33;;;;;;;14.48;6.13;;;18.00;54.50;;;;;;6289812;28;20016;-81
2024/02/18 10:43:47;;;;;;;16.52;7.40;;;18.10;54.40;;;;;;6310028;28;20020;-80
2024/02/18 10:46:48;;;;;;;25.65;9.27;;;18.30;54.10;;;;;;6298037;28;20118;-80
2024/02/18 10:50:05;;;;;;;16.67;7.55;;;18.50;53.90;;;;;;6306711;28;20504;-81
2024/02/18 10:53:39;;;;;;;18.40;7.82;;;18.60;53.40;;;;;;6287448;28;20020;-81
2024/02/18 10:56:40;;;;;;;17.20;7.53;;;18.80;53.20;;;;;;6304474;28;20441;-81
2024/02/18 10:59:56;;;;;;;14.10;6.18;;;19.00;52.70;;;;;;6309363;28;20024;-82
2024/02/18 11:03:06;;;;;;;17.85;8.27;;;19.20;52.50;;;;;;6287511;28;20131;-81
2024/02/18 11:06:08;;;;;;;23.48;9.75;;;19.40;52.10;;;;;;6290666;28;20480;-81
2024/02/18 11:09:11;;;;;;;15.43;7.05;;;19.60;51.70;;;;;;6290986;28;20068;-82
2024/02/18 11:12:14;;;;;;;17.92;8.13;;;19.80;51.40;;;;;;6296423;28;20165;-82
2024/02/18 11:15:15;;;;;;;26.48;12.07;;;20.10;50.90;;;;;;6296536;28;20016;-81
2024/02/18 11:18:16;;;;;;;22.33;9.73;;;20.20;50.10;;;;;;6297078;28;20904;-82
2024/02/18 11:21:18;;;;;;;18.88;7.95;;;20.50;49.50;;;;;;6311114;28;20047;-81
2024/02/18 11:24:24;;;;;;;18.42;7.50;;;20.70;48.70;;;;;;6300521;28;20020;-81
2024/02/18 11:27:28;;;;;;;17.40;7.57;;;21.10;48.50;;;;;;6297746;28;20035;-80
2024/02/18 11:30:29;;;;;;;11.65;6.45;;;21.40;47.20;;;;;;6297310;28;20023;-82
2024/02/18 11:33:36;;;;;;;14.57;5.72;;;21.90;46.50;;;;;;6317106;28;20139;-82
2024/02/18 11:36:37;;;;;;;11.02;4.63;;;22.40;45.60;;;;;;6315769;28;20031;-83
2024/02/18 11:39:42;;;;;;;9.98;5.20;;;22.80;43.80;;;;;;6321023;28;20087;-83
2024/02/18 11:42:48;;;;;;;8.98;4.95;;;22.90;42.90;;;;;;6296223;28;20026;-83
2024/02/18 11:45:55;;;;;;;17.50;6.03;;;23.00;43.10;;;;;;6296808;28;20047;-82
2024/02/18 11:48:56;;;;;;;9.87;4.53;;;23.00;42.50;;;;;;6297498;28;20032;-82
2024/02/18 11:51:57;;;;;;;8.23;4.55;;;23.10;42.20;;;;;;6299794;28;20090;-83
2024/02/18 11:54:58;;;;;;;7.72;4.20;;;23.20;42.30;;;;;;6301881;28;20024;-82
2024/02/18 11:57:59;;;;;;;8.05;3.65;;;23.30;41.30;;;;;;6296220;28;20147;-83
2024/02/18 12:01:04;;;;;;;6.63;3.28;;;23.50;41.00;;;;;;6298437;28;20025;-84
2024/02/18 12:04:07;;;;;;;8.57;3.15;;;23.80;40.20;;;;;;6296295;28;20451;-83
2024/02/18 12:07:10;;;;;;;5.80;3.53;;;24.00;39.50;;;;;;6297810;28;20020;-83
2024/02/18 12:10:11;;;;;;;7.10;3.75;;;23.90;39.60;;;;;;6281186;28;20447;-84
2024/02/18 12:13:17;;;;;;;7.68;3.08;;;23.80;39.50;;;;;;6314661;28;20089;-83
2024/02/18 12:16:18;;;;;;;6.80;3.83;;;23.60;39.50;;;;;;6317033;28;20039;-83
2024/02/18 12:19:19;;;;;;;9.20;4.45;;;23.40;39.60;;;;;;6289496;28;20401;-81
2024/02/18 12:22:24;;;;;;;7.70;4.43;;;23.10;40.10;;;;;;6309890;28;20052;-81
2024/02/18 12:25:38;;;;;;;10.40;4.45;;;22.90;40.90;;;;;;6314174;28;20069;-81
2024/02/18 12:28:39;;;;;;;8.40;4.38;;;22.50;41.60;;;;;;6303696;28;20037;-80
2024/02/18 12:31:43;;;;;;;8.80;4.57;;;22.20;42.30;;;;;;6282831;28;20527;-82
2024/02/18 12:34:46;;;;;;;14.15;4.88;;;21.90;42.90;;;;;;6313514;28;20526;-82
2024/02/18 12:37:53;;;;;;;7.82;4.38;;;21.70;43.20;;;;;;6317397;28;20107;-83
2024/02/18 12:40:59;;;;;;;10.27;4.53;;;21.60;43.40;;;;;;6313648;28;20019;-81
2024/02/18 12:44:07;;;;;;;9.25;3.97;;;21.50;43.60;;;;;;6341566;28;20027;-81
2024/02/18 12:47:10;;;;;;;8.43;4.18;;;21.60;43.70;;;;;;6315325;28;20084;-83
2024/02/18 12:50:12;;;;;;;8.98;4.18;;;21.50;43.70;;;;;;6285639;28;20172;-80
2024/02/18 12:53:13;;;;;;;6.75;4.20;;;21.50;43.70;;;;;;6287834;28;20024;-81
2024/02/18 12:56:16;;;;;;;11.77;5.13;;;21.60;43.80;;;;;;6311209;28;20022;-83
2024/02/18 12:59:17;;;;;;;9.48;3.95;;;21.50;43.70;;;;;;6313862;28;20043;-81
2024/02/18 13:02:20;;;;;;;10.38;3.75;;;21.30;43.90;;;;;;6302751;28;20548;-82
2024/02/18 13:05:25;;;;;;;8.45;4.97;;;21.20;44.20;;;;;;6288891;28;20048;-82
2024/02/18 13:08:42;;;;;;;7.63;3.47;;;20.90;44.40;;;;;;6311887;28;20028;-82
2024/02/18 13:11:43;;;;;;;12.77;3.80;;;20.70;44.80;;;;;;6313499;28;20016;-81
2024/02/18 13:14:44;;;;;;;8.77;4.40;;;20.50;45.10;;;;;;6315506;28;20027;-81
2024/02/18 13:17:51;;;;;;;7.53;3.88;;;20.30;45.50;;;;;;6310953;28;20081;-82
2024/02/18 13:20:53;;;;;;;10.32;4.00;;;20.20;45.90;;;;;;6297270;28;20079;-81
2024/02/18 13:23:57;;;;;;;8.20;4.38;;;20.00;46.20;;;;;;6314294;28;20024;-82
2024/02/18 13:27:00;;;;;;;9.80;4.72;;;19.90;46.60;;;;;;6306349;28;20420;-81
2024/02/18 13:30:02;;;;;;;8.00;4.28;;;19.70;46.90;;;;;;6310361;28;20040;-81
2024/02/18 13:33:05;;;;;;;10.32;4.55;;;19.50;47.40;;;;;;6297268;28;20047;-82
2024/02/18 13:36:07;;;;;;;9.25;4.07;;;19.30;48.00;;;;;;6313844;28;20020;-80
2024/02/18 13:39:14;;;;;;;8.73;4.10;;;19.20;48.40;;;;;;6311615;28;20043;-82
2024/02/18 13:42:15;;;;;;;7.40;4.10;;;19.10;48.60;;;;;;6311764;28;20032;-79
2024/02/18 13:45:18;;;;;;;7.38;4.32;;;19.10;48.80;;;;;;6307308;28;20135;-81
2024/02/18 13:48:19;;;;;;;15.40;4.90;;;19.00;49.00;;;;;;6283767;28;20032;-80
2024/02/18 13:51:19;;;;;;;7.30;4.30;;;18.90;49.20;;;;;;6287948;28;20068;-81
2024/02/18 13:54:21;;;;;;;9.40;4.75;;;18.80;49.50;;;;;;6296568;28;20079;-80
2024/02/18 13:57:27;;;;;;;9.70;4.60;;;18.70;49.60;;;;;;6304579;28;20038;-81
2024/02/18 14:00:29;;;;;;;9.88;4.55;;;18.60;49.90;;;;;;6289968;28;20488;-81
2024/02/18 14:03:30;;;;;;;12.80;5.15;;;18.50;50.10;;;;;;6271691;28;20050;-80
2024/02/18 14:06:32;;;;;;;9.95;4.68;;;18.50;50.30;;;;;;6290946;28;20046;-79
2024/02/18 14:09:34;;;;;;;10.30;4.88;;;18.40;50.50;;;;;;6292837;28;20028;-80
2024/02/18 14:12:35;;;;;;;8.82;4.60;;;18.40;50.60;;;;;;6291023;28;20369;-80
2024/02/18 14:15:36;;;;;;;9.43;4.78;;;18.40;51.00;;;;;;6309963;28;20093;-80
2024/02/18 14:18:38;;;;;;;9.35;5.13;;;18.40;50.60;;;;;;6301580;28;20157;-81
2024/02/18 14:21:40;;;;;;;12.25;5.00;;;18.50;50.60;;;;;;6308235;28;20020;-80
2024/02/18 14:24:42;;;;;;;10.02;4.75;;;18.50;50.60;;;;;;6291630;28;20514;-81
2024/02/18 14:27:44;;;;;;;8.85;4.75;;;18.30;50.60;;;;;;6292632;28;20109;-81
2024/02/18 14:30:49;;;;;;;13.02;5.55;;;18.40;50.80;;;;;;6286106;28;20024;-82
2024/02/18 14:33:53;;;;;;;9.48;5.00;;;18.40;50.90;;;;;;6272053;28;20032;-81
2024/02/18 14:36:59;;;;;;;14.48;5.20;;;18.40;51.00;;;;;;6292676;28;20027;-82
2024/02/18 14:40:02;;;;;;;16.33;5.43;;;18.30;51.00;;;;;;6292067;28;20395;-82
2024/02/18 14:43:03;;;;;;;14.20;4.70;;;18.40;51.00;;;;;;6297896;28;20077;-81
2024/02/18 14:46:04;;;;;;;9.73;4.88;;;18.40;51.60;;;;;;6299390;28;20039;-81
2024/02/18 14:49:05;;;;;;;7.72;4.45;;;18.40;51.00;;;;;;6277359;28;20040;-82
2024/02/18 14:52:08;;;;;;;8.57;3.90;;;18.40;51.10;;;;;;6315983;28;20020;-81
2024/02/18 14:55:10;;;;;;;20.05;6.45;;;18.40;51.00;;;;;;6317571;28;20194;-80
2024/02/18 14:58:12;;;;;;;16.50;6.80;;;18.40;51.00;;;;;;6323197;28;20451;-80
2024/02/18 15:01:14;;;;;;;8.73;4.65;;;18.50;51.00;;;;;;6291229;28;20036;-80
2024/02/18 15:04:15;;;;;;;8.50;4.10;;;18.50;50.90;;;;;;6311120;28;20416;-81
2024/02/18 15:07:20;;;;;;;10.18;4.57;;;18.50;50.80;;;;;;6308021;28;20067;-81
2024/02/18 15:10:23;;;;;;;7.50;4.05;;;18.60;50.70;;;;;;6309374;28;20083;-83
2024/02/18 15:13:25;;;;;;;8.20;4.13;;;18.70;50.60;;;;;;6296249;28;20101;-81
2024/02/18 15:16:26;;;;;;;9.02;4.55;;;18.70;50.40;;;;;;6278523;28;20369;-79
2024/02/18 15:19:27;;;;;;;14.73;5.38;;;18.80;50.40;;;;;;6305348;28;20032;-82
2024/02/18 15:22:28;;;;;;;10.82;4.80;;;18.70;50.40;;;;;;6295134;28;20543;-83
2024/02/18 15:25:28;;;;;;;10.55;5.32;;;18.70;50.40;;;;;;6291896;28;20028;-81
2024/02/18 15:28:30;;;;;;;11.18;5.07;;;18.60;50.50;;;;;;6312019;28;20028;-82
2024/02/18 15:31:35;;;;;;;11.38;4.88;;;18.60;50.70;;;;;;6307124;28;20065;-82
2024/02/18 15:34:37;;;;;;;10.63;5.15;;;18.50;50.80;;;;;;6304551;28;20073;-82
2024/02/18 15:37:38;;;;;;;11.07;5.40;;;18.50;50.90;;;;;;6291195;28;20024;-80
2024/02/18 15:40:41;;;;;;;9.90;5.60;;;18.40;51.00;;;;;;6296558;28;20020;-80
2024/02/18 15:43:44;;;;;;;12.45;5.45;;;18.30;51.30;;;;;;6300866;28;20108;-81